Terminal Aerodrome Forecast
Issued by NWS

Home | Current Version | Previous Version | Text Only | Print | Product List | Glossary On
Versions: 1 2 3 4 5 6 7 8 9 10 11 12 13 14 15 16 17 18 19 20 21 22 23 24 25 26 27
000
FTUS44 KTSA 251100
TAFRVS
TAF
KRVS 251134Z 2512/2612 16010KT P6SM OVC007
     FM251800 18012G20KT P6SM OVC015
      TEMPO 2520/2524 1SM TSRA BKN025CB
     FM260000 18013KT P6SM OVC025
     FM260600 17002KT 4SM BR OVC025
     FM260900 20002KT 2SM BR OVC007=

USA.gov is the U.S. government's official web portal to all federal, state and local government web resources and services.